Aviation Digital Data Service (ADDS)

Output produced by METARs form (0741 UTC 31 October 2014)
found at http://aviationweather.gov/adds/metars/
 
KLEB 310520Z 3106/0106 VRB03KT P6SM OVC040